Aviation Digital Data Service (ADDS)

Output produced by METARs form (0606 UTC 03 July 2022)
found at http://www.aviationweather.gov/metar/data/
 
METAR text: EPLL 030600Z 06008KT 9999 FEW022 19/14 Q1022
Conditions at: EPLL (LODZ/LUBLINEK , PL) observed 0600 UTC 03 July 2022
Temperature: 19.0°C (66°F)
Dewpoint: 14.0°C (57°F) [RH = 73%]
Pressure (altimeter): 30.18 inches Hg (1022.0 mb)
Winds: from the ENE (60 degrees) at 9 MPH (8 knots; 4.1 m/s)
Visibility: 6 or more miles (10+ km)
Ceiling: at least 12,000 feet AGL
Clouds: few clouds at 2200 feet AGL
Weather: no significant weather observed at this time

METAR text: EPLL 030530Z 06006KT 9999 FEW020 19/14 Q1022
Conditions at: EPLL (LODZ/LUBLINEK , PL) observed 0530 UTC 03 July 2022
Temperature: 19.0°C (66°F)
Dewpoint: 14.0°C (57°F) [RH = 73%]
Pressure (altimeter): 30.18 inches Hg (1022.0 mb)
Winds: from the ENE (60 degrees) at 7 MPH (6 knots; 3.1 m/s)
Visibility: 6 or more miles (10+ km)
Ceiling: at least 12,000 feet AGL
Clouds: few clouds at 2000 feet AGL
Weather: no significant weather observed at this time

Forecast for: EPLL (LODZ/LUBLINEK , PL)
Text: TAF EPLL 030530Z 0306/0406 VRB03KT CAVOK
Forecast period: 0600 UTC 03 July 2022 to 0600 UTC 04 July 2022
Forecast type: FROM: standard forecast or significant change
Winds: variable direction winds at 3 MPH (3 knots; 1.5 m/s)
Visibility: 6 or more miles (10+ km)
Ceiling: unknown
Clouds: missing
Weather: NSW  (no significant weather)